Aviation Digital Data Service (ADDS)

Output produced by METARs form (1429 UTC 30 June 2015)
found at http://aviationweather.gov/adds/metars/
 
KAEX 301353Z 25007KT 6SM HZ CLR 27/24 A3005 RMK AO2 SLP179 T02720244